createdAt,value
2019-04-07T00:02:40.786Z,36.50
2019-04-07T00:05:44.788Z,32.70
2019-04-07T00:08:48.975Z,33.77
2019-04-07T00:11:53.616Z,32.70
2019-04-07T00:14:57.287Z,34.43
2019-04-07T00:18:01.335Z,38.20
2019-04-07T00:21:05.257Z,37.00
2019-04-07T00:24:09.240Z,36.97
2019-04-07T00:27:13.190Z,33.60
2019-04-07T00:30:16.937Z,32.63
2019-04-07T00:33:21.092Z,40.37
2019-04-07T00:36:24.674Z,31.27
2019-04-07T00:39:28.240Z,28.37
2019-04-07T00:42:32.621Z,34.83
2019-04-07T00:45:37.052Z,31.13
2019-04-07T00:48:40.915Z,31.93
2019-04-07T00:51:45.366Z,28.47
2019-04-07T00:54:49.571Z,33.13
2019-04-07T00:57:53.665Z,35.93
2019-04-07T01:00:57.299Z,31.87
2019-04-07T01:04:01.142Z,30.00
2019-04-07T01:07:05.081Z,28.83
2019-04-07T01:10:09.685Z,28.17
2019-04-07T01:13:14.399Z,26.10
2019-04-07T01:16:18.233Z,30.70
2019-04-07T01:19:22.655Z,26.20
2019-04-07T01:22:26.661Z,34.07
2019-04-07T01:25:31.425Z,31.43
2019-04-07T01:28:35.361Z,31.00
2019-04-07T01:31:39.554Z,27.90
2019-04-07T01:34:43.577Z,27.93
2019-04-07T01:37:47.760Z,28.23
2019-04-07T01:41:04.066Z,33.27
2019-04-07T01:44:24.394Z,26.30
2019-04-07T01:47:35.401Z,28.10
2019-04-07T01:50:47.377Z,27.73
2019-04-07T01:54:10.132Z,35.07
2019-04-07T01:57:36.415Z,25.10
2019-04-07T02:00:56.595Z,28.77
2019-04-07T02:04:22.470Z,29.07
2019-04-07T02:07:37.971Z,27.70
2019-04-07T02:10:55.945Z,28.67
2019-04-07T02:14:08.655Z,31.50
2019-04-07T02:17:23.805Z,29.10
2019-04-07T02:20:55.378Z,27.10
2019-04-07T02:24:09.426Z,25.77
2019-04-07T02:27:23.115Z,26.33
2019-04-07T02:30:37.524Z,27.33
2019-04-07T02:33:46.139Z,27.10
2019-04-07T02:37:15.356Z,29.63
2019-04-07T02:40:37.202Z,23.60
2019-04-07T02:43:51.314Z,26.70
2019-04-07T02:47:06.493Z,29.73
2019-04-07T02:50:33.355Z,25.53
2019-04-07T02:54:09.253Z,24.83
2019-04-07T02:57:24.594Z,24.33
2019-04-07T03:00:50.944Z,24.40
2019-04-07T03:04:12.434Z,22.90
2019-04-07T03:07:21.732Z,25.60
2019-04-07T03:10:44.448Z,26.10
2019-04-07T03:13:54.303Z,25.37
2019-04-07T03:17:29.751Z,24.33
2019-04-07T03:20:51.525Z,24.53
2019-04-07T03:24:11.223Z,22.87
2019-04-07T03:27:22.135Z,24.10
2019-04-07T03:30:59.063Z,22.00
2019-04-07T03:34:13.938Z,25.47
2019-04-07T03:37:43.397Z,23.80
2019-04-07T03:40:48.137Z,20.83
2019-04-07T03:44:03.872Z,26.73
2019-04-07T03:47:30.769Z,22.27
2019-04-07T03:50:56.991Z,24.23
2019-04-07T03:54:24.127Z,23.03
2019-04-07T03:57:39.028Z,23.83
2019-04-07T04:01:33.927Z,29.93
2019-04-07T04:05:00.879Z,21.63
2019-04-07T04:08:22.824Z,24.47
2019-04-07T04:11:36.763Z,22.23
2019-04-07T04:14:45.694Z,20.70
2019-04-07T04:17:49.858Z,21.03
2019-04-07T04:20:54.280Z,23.73
2019-04-07T04:23:57.897Z,21.27
2019-04-07T04:27:01.890Z,20.33
2019-04-07T04:30:07.170Z,24.90
2019-04-07T04:33:10.744Z,18.70
2019-04-07T04:36:14.318Z,18.67
2019-04-07T04:39:19.723Z,21.07
2019-04-07T04:42:23.193Z,17.43
2019-04-07T04:45:27.594Z,19.57
2019-04-07T04:48:32.225Z,21.83
2019-04-07T04:51:39.299Z,21.27
2019-04-07T04:54:42.148Z,17.13
2019-04-07T04:57:45.935Z,19.47
2019-04-07T05:00:50.686Z,20.20
2019-04-07T05:03:54.467Z,17.00
2019-04-07T05:06:58.155Z,19.10
2019-04-07T05:10:01.803Z,20.23
2019-04-07T05:13:05.377Z,23.03
2019-04-07T05:16:09.223Z,18.43
2019-04-07T05:19:13.423Z,18.10
2019-04-07T05:22:17.922Z,21.57
2019-04-07T05:25:21.623Z,19.83
2019-04-07T05:28:26.626Z,17.80
2019-04-07T05:31:30.731Z,24.53
2019-04-07T05:34:34.553Z,22.33
2019-04-07T05:37:38.438Z,18.13
2019-04-07T05:40:42.212Z,19.20
2019-04-07T05:43:47.021Z,18.47
2019-04-07T05:46:50.708Z,19.57
2019-04-07T05:49:57.352Z,19.40
2019-04-07T05:52:59.602Z,17.13
2019-04-07T05:56:03.192Z,19.40
2019-04-07T05:59:09.830Z,20.57
2019-04-07T06:02:12.336Z,17.13
2019-04-07T06:05:17.733Z,20.40
2019-04-07T06:08:29.323Z,18.90
2019-04-07T06:11:31.177Z,20.93
2019-04-07T06:14:33.358Z,24.77
2019-04-07T06:17:37.917Z,18.57
2019-04-07T06:20:44.072Z,20.77
2019-04-07T06:23:46.933Z,21.43
2019-04-07T06:26:50.804Z,17.37
2019-04-07T06:29:59.630Z,18.27
2019-04-07T06:33:00.654Z,40.03
2019-04-07T06:36:04.970Z,40.17
2019-04-07T06:39:09.496Z,38.10
2019-04-07T06:42:14.248Z,42.53
2019-04-07T06:45:22.782Z,41.60
2019-04-07T06:48:26.714Z,44.00
2019-04-07T06:51:54.465Z,38.53
2019-04-07T06:55:33.305Z,41.73
2019-04-07T06:59:15.593Z,42.27
2019-04-07T07:02:34.958Z,46.53
2019-04-07T07:06:03.671Z,41.13
2019-04-07T07:09:30.619Z,37.43
2019-04-07T07:13:01.944Z,42.67
2019-04-07T07:16:29.995Z,32.73
2019-04-07T07:19:41.220Z,28.90
2019-04-07T07:22:49.478Z,30.87
2019-04-07T07:25:53.254Z,26.63
2019-04-07T07:28:57.544Z,28.10
2019-04-07T07:32:03.768Z,24.03
2019-04-07T07:35:07.967Z,25.17
2019-04-07T07:38:12.624Z,22.93
2019-04-07T07:41:19.735Z,24.83
2019-04-07T07:44:22.298Z,27.57
2019-04-07T07:47:29.642Z,21.40
2019-04-07T07:50:34.722Z,23.70
2019-04-07T07:53:40.282Z,35.20
2019-04-07T07:56:48.682Z,47.50
2019-04-07T07:59:49.950Z,33.77
2019-04-07T08:02:54.686Z,35.40
2019-04-07T08:05:59.044Z,32.13
2019-04-07T08:09:11.990Z,35.27
2019-04-07T08:12:08.384Z,25.13
2019-04-07T08:15:12.690Z,30.70
2019-04-07T08:18:18.878Z,30.73
2019-04-07T08:21:22.574Z,141.47
2019-04-07T08:24:26.259Z,38.20
2019-04-07T08:27:31.182Z,34.17
2019-04-07T08:30:36.047Z,36.00
2019-04-07T08:33:40.065Z,44.07
2019-04-07T08:36:45.170Z,39.20
2019-04-07T08:39:49.699Z,34.57
2019-04-07T08:42:53.498Z,35.40
2019-04-07T08:45:57.962Z,49.97
2019-04-07T08:49:01.916Z,39.53
2019-04-07T08:52:09.659Z,37.90
2019-04-07T08:55:11.885Z,36.73
2019-04-07T08:58:24.955Z,30.73
2019-04-07T09:01:21.338Z,26.07
2019-04-07T09:04:26.521Z,30.27
2019-04-07T09:07:31.024Z,36.97
2019-04-07T09:10:42.987Z,31.37
2019-04-07T09:13:56.309Z,33.90
2019-04-07T09:17:29.328Z,35.27
2019-04-07T09:20:59.530Z,35.97
2019-04-07T09:24:10.126Z,30.97
2019-04-07T09:27:23.586Z,30.93
2019-04-07T09:30:42.201Z,35.03
2019-04-07T09:34:20.108Z,41.53
2019-04-07T09:37:32.294Z,30.10
2019-04-07T09:40:48.487Z,26.83
2019-04-07T09:44:14.607Z,31.97
2019-04-07T09:47:38.031Z,28.50
2019-04-07T09:50:51.646Z,23.90
2019-04-07T09:54:14.894Z,30.70
2019-04-07T09:57:39.794Z,23.13
2019-04-07T10:01:06.877Z,23.23
2019-04-07T10:04:29.764Z,21.13
2019-04-07T10:07:43.775Z,29.40
2019-04-07T10:11:05.693Z,28.40
2019-04-07T10:14:24.059Z,33.47
2019-04-07T10:17:56.510Z,22.90
2019-04-07T10:21:09.946Z,26.07
2019-04-07T10:24:23.589Z,25.43
2019-04-07T10:27:45.186Z,23.63
2019-04-07T10:31:06.362Z,19.33
2019-04-07T10:34:18.251Z,22.97
2019-04-07T10:37:37.952Z,25.30
2019-04-07T10:40:50.361Z,23.33
2019-04-07T10:44:00.030Z,20.93
2019-04-07T10:47:23.489Z,31.70
2019-04-07T10:50:37.900Z,16.53
2019-04-07T10:53:51.129Z,20.60
2019-04-07T10:57:12.874Z,17.03
2019-04-07T11:00:34.506Z,16.90
2019-04-07T11:04:01.726Z,25.93
2019-04-07T11:07:28.091Z,18.40
2019-04-07T11:10:54.324Z,16.43
2019-04-07T11:14:23.817Z,17.27
2019-04-07T11:17:50.318Z,18.17
2019-04-07T11:21:28.459Z,17.23
2019-04-07T11:24:49.941Z,17.43
2019-04-07T11:27:59.501Z,14.23
2019-04-07T11:31:34.281Z,15.03
2019-04-07T11:34:55.222Z,15.63
2019-04-07T11:38:15.011Z,13.40
2019-04-07T11:41:28.779Z,16.20
2019-04-07T11:45:04.974Z,14.40
2019-04-07T11:48:23.257Z,14.07
2019-04-07T11:51:35.819Z,13.63
2019-04-07T11:54:49.248Z,15.83
2019-04-07T11:58:17.519Z,14.10
2019-04-07T12:01:46.079Z,15.07
2019-04-07T12:05:09.890Z,13.97
2019-04-07T12:08:47.855Z,15.23
2019-04-07T12:12:05.907Z,13.10
2019-04-07T12:15:28.903Z,14.67
2019-04-07T12:18:40.725Z,13.53
2019-04-07T12:21:49.397Z,14.77
2019-04-07T12:25:05.440Z,14.13
2019-04-07T12:28:22.563Z,14.40
2019-04-07T12:31:45.179Z,12.73
2019-04-07T12:35:03.203Z,12.60
2019-04-07T12:38:20.911Z,14.00
2019-04-07T12:41:32.236Z,11.47
2019-04-07T12:44:55.465Z,12.73
2019-04-07T12:48:31.695Z,12.90
2019-04-07T12:51:56.095Z,11.93
2019-04-07T12:55:11.953Z,12.17
2019-04-07T12:58:44.009Z,10.77
2019-04-07T13:02:05.590Z,12.77
2019-04-07T13:05:24.811Z,11.80
2019-04-07T13:08:54.808Z,11.03
2019-04-07T13:12:14.083Z,12.30
2019-04-07T13:15:48.940Z,12.37
2019-04-07T13:19:10.201Z,12.10
2019-04-07T13:22:40.959Z,11.33
2019-04-07T13:25:55.066Z,13.90
2019-04-07T13:29:29.126Z,11.77
2019-04-07T13:32:43.575Z,12.03
2019-04-07T13:36:13.443Z,10.63
2019-04-07T13:39:41.519Z,10.30
2019-04-07T13:43:09.635Z,11.30
2019-04-07T13:46:38.947Z,10.83
2019-04-07T13:50:11.593Z,11.50
2019-04-07T13:53:41.050Z,10.23
2019-04-07T13:57:00.178Z,13.97
2019-04-07T14:00:29.336Z,11.37
2019-04-07T14:03:51.462Z,11.10
2019-04-07T14:07:06.723Z,10.47
2019-04-07T14:10:23.503Z,12.37
2019-04-07T14:13:37.950Z,10.47
2019-04-07T14:16:47.526Z,10.07
2019-04-07T14:20:29.236Z,11.33
2019-04-07T14:23:39.863Z,11.17
2019-04-07T14:26:59.361Z,9.93
2019-04-07T14:30:22.318Z,13.10
2019-04-07T14:33:44.533Z,11.00
2019-04-07T14:37:17.478Z,10.53
2019-04-07T14:40:30.142Z,10.57
2019-04-07T14:44:05.313Z,10.03
2019-04-07T14:47:34.568Z,10.10
2019-04-07T14:51:08.208Z,9.00
2019-04-07T14:54:23.169Z,10.03
2019-04-07T14:57:39.040Z,10.13
2019-04-07T15:01:03.469Z,11.50
2019-04-07T15:04:06.362Z,9.67
2019-04-07T15:07:22.106Z,9.53
2019-04-07T15:10:31.942Z,12.40
2019-04-07T15:13:36.435Z,11.57
2019-04-07T15:16:40.060Z,9.77
2019-04-07T15:19:44.222Z,11.17
2019-04-07T15:22:48.521Z,11.03
2019-04-07T15:25:53.094Z,9.67
2019-04-07T15:28:58.994Z,11.20
2019-04-07T15:32:03.237Z,9.83
2019-04-07T15:35:07.512Z,12.03
2019-04-07T15:38:12.425Z,9.00
2019-04-07T15:41:18.916Z,9.60
2019-04-07T15:44:22.834Z,10.70
2019-04-07T15:47:27.627Z,10.27
2019-04-07T15:50:31.520Z,9.60
2019-04-07T15:53:36.837Z,9.40
2019-04-07T15:56:41.283Z,10.00
2019-04-07T15:59:46.075Z,9.83
2019-04-07T16:02:52.145Z,9.77
2019-04-07T16:05:55.568Z,9.17
2019-04-07T16:09:01.036Z,8.90
2019-04-07T16:12:04.411Z,9.13
2019-04-07T16:15:08.328Z,10.53
2019-04-07T16:18:12.648Z,11.00
2019-04-07T16:21:16.352Z,10.67
2019-04-07T16:24:21.970Z,9.73
2019-04-07T16:27:26.047Z,10.13
2019-04-07T16:30:30.447Z,10.03
2019-04-07T16:33:35.241Z,10.20
2019-04-07T16:36:40.186Z,9.87
2019-04-07T16:39:44.604Z,10.33
2019-04-07T16:43:01.198Z,10.40
2019-04-07T16:45:54.728Z,10.13
2019-04-07T16:48:58.699Z,10.13
2019-04-07T16:52:03.573Z,9.93
2019-04-07T16:55:29.381Z,8.90
2019-04-07T16:58:36.544Z,9.70
2019-04-07T17:01:38.547Z,9.17
2019-04-07T17:04:43.068Z,9.53
2019-04-07T17:07:48.199Z,10.00
2019-04-07T17:10:52.689Z,10.13
2019-04-07T17:13:56.955Z,8.80
2019-04-07T17:17:00.587Z,9.47
2019-04-07T17:20:04.734Z,10.60
2019-04-07T17:23:08.657Z,9.33
2019-04-07T17:26:12.407Z,9.63
2019-04-07T17:29:19.077Z,9.23
2019-04-07T17:32:23.203Z,10.27
2019-04-07T17:35:27.107Z,8.90
2019-04-07T17:38:36.368Z,9.30
2019-04-07T17:41:39.865Z,9.47
2019-04-07T17:45:03.343Z,9.10
2019-04-07T17:48:25.610Z,8.37
2019-04-07T17:51:38.287Z,10.43
2019-04-07T17:55:13.778Z,10.17
2019-04-07T17:58:32.075Z,9.73
2019-04-07T18:02:07.255Z,9.37
2019-04-07T18:05:17.411Z,20.33
2019-04-07T18:08:43.505Z,17.12
2019-04-07T18:12:09.261Z,24.00
2019-04-07T18:15:30.276Z,60.60
2019-04-07T18:18:56.245Z,23.57
2019-04-07T18:22:20.484Z,21.17
2019-04-07T18:26:01.659Z,18.90
2019-04-07T18:29:20.078Z,105.20
2019-04-07T18:32:41.784Z,20.40
2019-04-07T18:36:09.163Z,30.77
2019-04-07T18:39:41.910Z,22.30
2019-04-07T18:42:55.665Z,21.07
2019-04-07T18:46:17.904Z,19.73
2019-04-07T18:49:37.589Z,20.73
2019-04-07T18:53:00.128Z,21.33
2019-04-07T18:56:32.455Z,22.60
2019-04-07T19:00:01.408Z,26.90
2019-04-07T19:03:29.687Z,24.40
2019-04-07T19:06:58.780Z,26.77
2019-04-07T19:10:19.867Z,68.70
2019-04-07T19:13:46.907Z,39.37
2019-04-07T19:17:08.837Z,38.30
2019-04-07T19:20:27.082Z,43.97
2019-04-07T19:23:50.815Z,39.37
2019-04-07T19:27:11.860Z,35.83
2019-04-07T19:30:29.337Z,40.47
2019-04-07T19:33:59.859Z,38.53
2019-04-07T19:37:15.548Z,36.17
2019-04-07T19:40:28.761Z,34.93
2019-04-07T19:43:48.290Z,36.23
2019-04-07T19:47:01.242Z,35.93
2019-04-07T19:50:23.344Z,30.73
2019-04-07T19:53:36.785Z,34.17
2019-04-07T19:56:54.872Z,30.50
2019-04-07T20:00:20.788Z,27.93
2019-04-07T20:03:40.533Z,33.93
2019-04-07T20:07:00.763Z,32.10
2019-04-07T20:10:39.428Z,29.53
2019-04-07T20:14:00.833Z,26.77
2019-04-07T20:17:38.879Z,28.40
2019-04-07T20:20:49.037Z,47.07
2019-04-07T20:24:17.668Z,25.23
2019-04-07T20:27:43.131Z,108.67
2019-04-07T20:31:05.737Z,69.43
2019-04-07T20:34:18.645Z,64.80
2019-04-07T20:37:30.228Z,56.07
2019-04-07T20:40:52.017Z,56.37
2019-04-07T20:44:14.364Z,47.63
2019-04-07T20:47:36.303Z,50.50
2019-04-07T20:50:48.498Z,45.30
2019-04-07T20:54:21.594Z,52.03
2019-04-07T20:58:11.598Z,47.97
2019-04-07T21:01:22.582Z,43.87
2019-04-07T21:04:37.467Z,48.67
2019-04-07T21:08:10.438Z,51.37
2019-04-07T21:11:39.315Z,41.00
2019-04-07T21:15:19.060Z,40.43
2019-04-07T21:18:19.730Z,37.03
2019-04-07T21:21:43.280Z,32.63
2019-04-07T21:24:55.257Z,29.00
2019-04-07T21:28:07.735Z,53.47
2019-04-07T21:31:19.012Z,43.60
2019-04-07T21:34:30.726Z,40.70
2019-04-07T21:38:00.677Z,42.07
2019-04-07T21:41:24.305Z,42.57
2019-04-07T21:44:35.810Z,37.93
2019-04-07T21:48:00.304Z,36.10
2019-04-07T21:51:19.407Z,38.20
2019-04-07T21:54:34.729Z,42.33
2019-04-07T21:57:54.909Z,37.90
2019-04-07T22:01:06.758Z,38.57
2019-04-07T22:04:21.062Z,37.73
2019-04-07T22:07:49.636Z,56.10
2019-04-07T22:10:53.708Z,42.90
2019-04-07T22:13:57.952Z,49.97
2019-04-07T22:17:02.839Z,44.30
2019-04-07T22:20:08.352Z,40.53
2019-04-07T22:23:12.559Z,38.93
2019-04-07T22:26:17.963Z,40.40
2019-04-07T22:29:22.393Z,39.70
2019-04-07T22:32:26.869Z,38.37
2019-04-07T22:35:30.439Z,37.13
2019-04-07T22:38:34.296Z,36.60
2019-04-07T22:41:41.034Z,36.40
2019-04-07T22:44:43.513Z,34.77
2019-04-07T22:47:51.544Z,35.03
2019-04-07T22:50:52.520Z,32.47
2019-04-07T22:53:57.730Z,35.57
2019-04-07T22:57:02.868Z,33.50
2019-04-07T23:00:10.886Z,32.60
2019-04-07T23:03:15.498Z,31.63
2019-04-07T23:06:19.138Z,30.27
2019-04-07T23:09:23.165Z,36.57
2019-04-07T23:12:27.118Z,31.23
2019-04-07T23:15:41.582Z,30.87
2019-04-07T23:18:36.143Z,29.30
2019-04-07T23:21:40.076Z,32.90
2019-04-07T23:24:43.667Z,28.40
2019-04-07T23:27:47.593Z,27.57
2019-04-07T23:30:51.405Z,28.83
2019-04-07T23:33:55.300Z,28.70
2019-04-07T23:36:59.736Z,28.60
2019-04-07T23:40:04.377Z,28.67
2019-04-07T23:43:08.823Z,33.50
2019-04-07T23:46:20.660Z,26.83
2019-04-07T23:49:19.107Z,23.93
2019-04-07T23:52:22.981Z,31.27
2019-04-07T23:55:27.497Z,26.27
2019-04-07T23:58:31.602Z,27.60
